createdAt,value
2017-11-06T00:00:10.130Z,0
2017-11-06T00:01:20.538Z,0
2017-11-06T00:02:30.931Z,0
2017-11-06T00:03:41.002Z,0
2017-11-06T00:04:51.416Z,0
2017-11-06T00:06:01.496Z,0
2017-11-06T00:07:11.246Z,0
2017-11-06T00:08:21.355Z,0
2017-11-06T00:09:31.093Z,0
2017-11-06T00:10:41.503Z,0
2017-11-06T00:11:51.962Z,0
2017-11-06T00:13:02.037Z,0
2017-11-06T00:14:12.129Z,0
2017-11-06T00:15:22.544Z,0
2017-11-06T00:16:32.946Z,0
2017-11-06T00:17:45.304Z,0
2017-11-06T00:18:55.402Z,0
2017-11-06T00:20:05.500Z,0
2017-11-06T00:21:15.566Z,0
2017-11-06T00:22:25.974Z,0
2017-11-06T00:23:36.435Z,0
2017-11-06T00:24:46.845Z,0
2017-11-06T00:25:57.246Z,0
2017-11-06T00:27:07.663Z,0
2017-11-06T00:28:18.065Z,0
2017-11-06T00:29:28.475Z,0
2017-11-06T00:30:38.589Z,0
2017-11-06T00:31:49.013Z,0
2017-11-06T00:32:59.389Z,0
2017-11-06T00:34:09.779Z,0
2017-11-06T00:35:20.224Z,0
2017-11-06T00:36:30.298Z,0
2017-11-06T00:37:40.362Z,0
2017-11-06T00:38:50.775Z,0
2017-11-06T00:40:01.200Z,0
2017-11-06T00:41:11.606Z,0
2017-11-06T00:42:21.999Z,0
2017-11-06T00:43:32.411Z,0
2017-11-06T00:44:42.814Z,0
2017-11-06T00:45:53.207Z,0
2017-11-06T00:47:03.611Z,0
2017-11-06T00:48:13.692Z,0
2017-11-06T00:49:24.077Z,0
2017-11-06T00:50:34.541Z,0
2017-11-06T00:51:44.938Z,0
2017-11-06T00:52:55.366Z,0
2017-11-06T00:54:05.773Z,0
2017-11-06T00:55:15.855Z,0
2017-11-06T00:56:26.278Z,0
2017-11-06T00:57:36.665Z,0
2017-11-06T00:58:47.077Z,0
2017-11-06T00:59:57.145Z,0
2017-11-06T01:01:07.540Z,0
2017-11-06T01:02:17.955Z,0
2017-11-06T01:03:28.353Z,0
2017-11-06T01:04:38.809Z,0
2017-11-06T01:05:48.880Z,0
2017-11-06T01:06:59.288Z,0
2017-11-06T01:08:09.070Z,0
2017-11-06T01:09:19.148Z,0
2017-11-06T01:10:29.542Z,0
2017-11-06T01:11:39.949Z,0
2017-11-06T01:12:50.346Z,0
2017-11-06T01:14:00.427Z,0
2017-11-06T01:15:10.160Z,0
2017-11-06T01:16:19.902Z,0
2017-11-06T01:17:29.963Z,0
2017-11-06T01:18:40.375Z,0
2017-11-06T01:19:50.773Z,0
2017-11-06T01:21:00.837Z,0
2017-11-06T01:22:10.901Z,0
2017-11-06T01:23:21.318Z,0
2017-11-06T01:24:31.387Z,0
2017-11-06T01:25:41.789Z,0
2017-11-06T01:26:52.206Z,0
2017-11-06T01:28:02.683Z,0
2017-11-06T01:29:12.773Z,0
2017-11-06T01:30:23.192Z,0
2017-11-06T01:31:33.603Z,0
2017-11-06T01:32:43.356Z,0
2017-11-06T01:33:53.760Z,0
2017-11-06T01:35:04.171Z,0
2017-11-06T01:36:14.581Z,0
2017-11-06T01:37:24.982Z,0
2017-11-06T01:38:35.372Z,0
2017-11-06T01:39:45.766Z,0
2017-11-06T01:40:55.499Z,0
2017-11-06T01:42:05.565Z,0
2017-11-06T01:43:15.995Z,0
2017-11-06T01:44:26.393Z,0
2017-11-06T01:45:36.859Z,0
2017-11-06T01:46:47.272Z,0
2017-11-06T01:47:57.672Z,0
2017-11-06T01:49:08.071Z,0
2017-11-06T01:50:18.492Z,0
2017-11-06T01:51:28.228Z,0
2017-11-06T01:52:38.630Z,0
2017-11-06T01:53:49.034Z,0
2017-11-06T01:54:59.442Z,0
2017-11-06T01:56:09.503Z,0
2017-11-06T01:57:19.954Z,0
2017-11-06T01:58:30.346Z,0
2017-11-06T01:59:40.748Z,0
2017-11-06T02:00:51.147Z,0
2017-11-06T02:02:01.556Z,0
2017-11-06T02:03:11.965Z,0
2017-11-06T02:04:23.274Z,0
2017-11-06T02:05:33.662Z,0
2017-11-06T02:06:44.941Z,0
2017-11-06T02:07:54.689Z,0
2017-11-06T02:09:05.141Z,0
2017-11-06T02:10:15.532Z,0
2017-11-06T02:11:25.937Z,0
2017-11-06T02:12:36.347Z,0
2017-11-06T02:13:46.765Z,0
2017-11-06T02:14:57.209Z,0
2017-11-06T02:16:07.602Z,0
2017-11-06T02:17:17.992Z,0
2017-11-06T02:18:28.396Z,0
2017-11-06T02:19:38.799Z,0
2017-11-06T02:20:49.213Z,0
2017-11-06T02:21:59.599Z,0
2017-11-06T02:23:10.012Z,0
2017-11-06T02:24:20.418Z,0
2017-11-06T02:25:30.860Z,0
2017-11-06T02:26:41.419Z,0
2017-11-06T02:27:51.163Z,0
2017-11-06T02:29:01.607Z,0
2017-11-06T02:30:12.013Z,0
2017-11-06T02:31:22.424Z,0
2017-11-06T02:32:32.547Z,0
2017-11-06T02:33:43.062Z,0
2017-11-06T02:34:52.816Z,0
2017-11-06T02:36:03.225Z,0
2017-11-06T02:37:13.627Z,0
2017-11-06T02:38:24.104Z,0
2017-11-06T02:39:34.508Z,0
2017-11-06T02:40:44.909Z,0
2017-11-06T02:41:55.369Z,0
2017-11-06T02:43:05.776Z,0
2017-11-06T02:44:16.168Z,0
2017-11-06T02:45:26.248Z,0
2017-11-06T02:46:36.717Z,0
2017-11-06T02:47:47.120Z,0
2017-11-06T02:48:57.522Z,0
2017-11-06T02:50:07.974Z,0
2017-11-06T02:51:18.026Z,0
2017-11-06T02:52:28.427Z,0
2017-11-06T02:53:38.840Z,0
2017-11-06T02:54:49.267Z,0
2017-11-06T02:55:59.656Z,0
2017-11-06T02:57:09.744Z,0
2017-11-06T02:58:20.133Z,0
2017-11-06T02:59:30.536Z,0
2017-11-06T03:00:40.929Z,0
2017-11-06T03:33:03.075Z,0
2017-11-06T03:34:13.499Z,0
2017-11-06T03:35:23.896Z,0
2017-11-06T03:36:33.962Z,0
2017-11-06T03:37:43.707Z,0
2017-11-06T03:38:54.105Z,0
2017-11-06T03:40:04.521Z,0
2017-11-06T03:41:14.583Z,0
2017-11-06T03:42:24.659Z,0
2017-11-06T03:43:35.058Z,0
2017-11-06T03:44:45.509Z,0
2017-11-06T03:45:55.912Z,0
2017-11-06T03:47:05.993Z,0
2017-11-06T03:48:16.055Z,0
2017-11-06T03:49:26.128Z,0
2017-11-06T03:50:36.565Z,0
2017-11-06T03:51:46.960Z,0
2017-11-06T03:52:57.371Z,0
2017-11-06T03:54:07.442Z,0
2017-11-06T03:55:17.498Z,0
2017-11-06T03:56:27.576Z,0
2017-11-06T03:57:37.653Z,0
2017-11-06T03:58:48.103Z,0
2017-11-06T03:59:58.501Z,0
2017-11-06T04:01:08.898Z,0
2017-11-06T04:02:19.300Z,0
2017-11-06T04:03:29.374Z,0
2017-11-06T04:04:39.777Z,0
2017-11-06T04:05:49.852Z,0
2017-11-06T04:07:00.249Z,0
2017-11-06T04:08:10.381Z,0
2017-11-06T04:09:20.796Z,0
2017-11-06T04:10:31.182Z,0
2017-11-06T04:11:41.275Z,0
2017-11-06T04:12:51.687Z,0
2017-11-06T04:14:02.130Z,0
2017-11-06T04:15:12.195Z,0
2017-11-06T04:16:21.950Z,0
2017-11-06T04:17:32.375Z,0
2017-11-06T04:18:42.777Z,0
2017-11-06T04:19:52.890Z,0
2017-11-06T04:21:03.289Z,0
2017-11-06T04:22:13.716Z,0
2017-11-06T04:23:23.457Z,0
2017-11-06T04:24:33.849Z,0
2017-11-06T04:25:44.290Z,0
2017-11-06T04:26:54.693Z,0
2017-11-06T04:28:05.121Z,0
2017-11-06T04:29:15.510Z,0
2017-11-06T04:30:25.923Z,0
2017-11-06T04:31:36.344Z,0
2017-11-06T04:32:46.422Z,0
2017-11-06T04:33:56.807Z,0
2017-11-06T04:35:07.211Z,0
2017-11-06T04:36:17.608Z,0
2017-11-06T04:37:28.015Z,0
2017-11-06T04:38:38.097Z,0
2017-11-06T04:39:48.498Z,0
2017-11-06T04:40:58.588Z,0
2017-11-06T04:42:08.665Z,0
2017-11-06T04:43:19.068Z,0
2017-11-06T04:44:29.469Z,0
2017-11-06T04:45:39.547Z,0
2017-11-06T04:46:49.943Z,0
2017-11-06T04:48:00.374Z,0
2017-11-06T04:49:10.453Z,0
2017-11-06T04:50:20.872Z,0
2017-11-06T04:51:31.274Z,0
2017-11-06T04:52:41.676Z,0
2017-11-06T04:53:51.088Z,0
2017-11-06T04:55:01.211Z,0
2017-11-06T04:56:11.618Z,0
2017-11-06T04:57:22.025Z,0
2017-11-06T04:58:32.415Z,0
2017-11-06T04:59:42.810Z,0
2017-11-06T05:00:52.924Z,0
2017-11-06T05:02:03.333Z,0
2017-11-06T05:03:13.424Z,0
2017-11-06T05:04:23.816Z,0
2017-11-06T05:05:34.211Z,0
2017-11-06T05:06:44.662Z,0
2017-11-06T05:07:55.053Z,0
2017-11-06T05:09:05.481Z,0
2017-11-06T05:10:15.897Z,0
2017-11-06T05:11:25.963Z,0
2017-11-06T05:12:36.037Z,0
2017-11-06T05:13:46.116Z,0
2017-11-06T05:14:56.192Z,0
2017-11-06T05:16:06.663Z,0
2017-11-06T05:17:16.390Z,0
2017-11-06T05:18:26.516Z,0
2017-11-06T05:19:36.900Z,0
2017-11-06T05:20:47.313Z,0
2017-11-06T05:21:57.369Z,0
2017-11-06T05:23:07.432Z,4
2017-11-06T05:24:17.597Z,4
2017-11-06T05:25:27.667Z,0
2017-11-06T05:26:38.098Z,0
2017-11-06T05:27:48.498Z,4
2017-11-06T05:28:58.570Z,4
2017-11-06T05:30:08.977Z,0
2017-11-06T05:31:19.380Z,4
2017-11-06T05:32:29.786Z,4
2017-11-06T05:33:40.178Z,4
2017-11-06T05:34:50.592Z,8
2017-11-06T05:36:01.001Z,4
2017-11-06T05:37:10.738Z,4
2017-11-06T05:38:21.156Z,8
2017-11-06T05:39:31.553Z,8
2017-11-06T05:40:41.958Z,12
2017-11-06T05:41:52.415Z,12
2017-11-06T05:43:02.811Z,12
2017-11-06T05:44:13.217Z,16
2017-11-06T05:45:23.316Z,16
2017-11-06T05:46:33.739Z,16
2017-11-06T05:47:44.154Z,20
2017-11-06T05:48:54.569Z,20
2017-11-06T05:50:04.997Z,24
2017-11-06T05:51:15.400Z,24
2017-11-06T05:52:25.800Z,32
2017-11-06T05:53:35.917Z,36
2017-11-06T05:54:46.332Z,44
2017-11-06T05:55:56.409Z,52
2017-11-06T05:57:06.176Z,56
2017-11-06T05:58:16.576Z,64
2017-11-06T05:59:26.966Z,68
2017-11-06T06:00:36.708Z,76
2017-11-06T06:01:46.785Z,84
2017-11-06T06:02:56.854Z,88
2017-11-06T06:04:07.248Z,92
2017-11-06T06:05:17.383Z,100
2017-11-06T06:06:27.834Z,104
2017-11-06T06:07:37.905Z,112
2017-11-06T06:08:48.300Z,116
2017-11-06T06:09:58.368Z,116
2017-11-06T06:11:08.756Z,124
2017-11-06T06:12:19.146Z,124
2017-11-06T06:13:29.230Z,136
2017-11-06T06:14:39.303Z,144
2017-11-06T06:15:49.366Z,148
2017-11-06T06:16:58.831Z,156
2017-11-06T06:18:09.245Z,160
2017-11-06T06:19:19.646Z,164
2017-11-06T06:20:30.070Z,172
2017-11-06T06:21:40.479Z,184
2017-11-06T06:22:50.932Z,196
2017-11-06T06:24:01.004Z,212
2017-11-06T06:25:11.402Z,228
2017-11-06T06:26:21.791Z,256
2017-11-06T06:27:32.195Z,280
2017-11-06T06:28:42.876Z,304
2017-11-06T06:29:53.269Z,320
2017-11-06T06:31:03.671Z,336
2017-11-06T06:32:13.398Z,364
2017-11-06T06:33:23.473Z,384
2017-11-06T06:34:33.883Z,400
2017-11-06T06:35:44.288Z,412
2017-11-06T06:36:54.373Z,412
2017-11-06T06:38:04.446Z,404
2017-11-06T06:39:14.513Z,400
2017-11-06T06:40:24.585Z,396
2017-11-06T06:41:35.007Z,400
2017-11-06T06:42:45.411Z,408
2017-11-06T06:43:55.494Z,416
2017-11-06T06:45:05.892Z,416
2017-11-06T06:46:15.978Z,428
2017-11-06T06:47:26.063Z,432
2017-11-06T06:48:36.457Z,440
2017-11-06T06:49:46.862Z,444
2017-11-06T06:50:56.920Z,448
2017-11-06T06:52:07.016Z,452
2017-11-06T06:53:17.427Z,460
2017-11-06T06:54:27.506Z,472
2017-11-06T06:55:37.570Z,480
2017-11-06T06:56:47.678Z,488
2017-11-06T06:57:58.129Z,492
2017-11-06T06:59:08.211Z,496
2017-11-06T07:00:18.597Z,508
2017-11-06T07:01:28.996Z,532
2017-11-06T07:02:39.414Z,576
2017-11-06T07:03:49.864Z,616
2017-11-06T07:04:59.935Z,648
2017-11-06T07:06:10.332Z,680
2017-11-06T07:07:20.390Z,716
2017-11-06T07:08:30.803Z,752
2017-11-06T07:09:40.874Z,776
2017-11-06T07:10:51.268Z,780
2017-11-06T07:12:01.670Z,768
2017-11-06T07:13:11.757Z,752
2017-11-06T07:14:22.162Z,744
2017-11-06T07:15:32.223Z,752
2017-11-06T07:16:42.621Z,748
2017-11-06T07:17:53.004Z,728
2017-11-06T07:19:03.402Z,704
2017-11-06T07:20:13.829Z,684
2017-11-06T07:21:23.940Z,664
2017-11-06T07:22:34.026Z,648
2017-11-06T07:23:44.409Z,652
2017-11-06T07:24:54.625Z,676
2017-11-06T07:26:05.022Z,704
2017-11-06T07:27:15.093Z,736
2017-11-06T07:28:25.481Z,764
2017-11-06T07:29:37.080Z,788
2017-11-06T07:30:47.398Z,804
2017-11-06T07:31:57.784Z,812
2017-11-06T07:33:08.283Z,824
2017-11-06T07:34:18.023Z,836
2017-11-06T07:35:28.109Z,840
2017-11-06T07:36:38.504Z,824
2017-11-06T07:37:48.916Z,808
2017-11-06T07:38:59.353Z,800
2017-11-06T07:40:10.416Z,804
2017-11-06T07:41:20.477Z,800
2017-11-06T07:42:30.876Z,784
2017-11-06T07:43:40.919Z,764
2017-11-06T07:44:51.344Z,748
2017-11-06T07:46:01.396Z,744
2017-11-06T07:47:11.749Z,748
2017-11-06T07:48:22.155Z,748
2017-11-06T07:49:32.557Z,744
2017-11-06T07:50:42.655Z,752
2017-11-06T07:51:53.060Z,768
2017-11-06T07:53:03.472Z,804
2017-11-06T07:54:13.958Z,848
2017-11-06T07:55:24.024Z,900
2017-11-06T07:56:34.488Z,976
2017-11-06T07:57:44.896Z,1068
2017-11-06T07:58:55.002Z,1132
2017-11-06T08:00:05.065Z,1168
2017-11-06T08:01:15.469Z,1180
2017-11-06T08:02:25.884Z,1180
2017-11-06T08:03:36.296Z,1192
2017-11-06T08:04:46.365Z,1220
2017-11-06T08:05:56.587Z,1232
2017-11-06T08:07:07.019Z,1216
2017-11-06T08:08:17.486Z,1184
2017-11-06T08:09:27.877Z,1164
2017-11-06T08:10:38.285Z,1160
2017-11-06T08:11:48.699Z,1140
2017-11-06T08:12:59.147Z,1084
2017-11-06T08:14:09.599Z,1060
2017-11-06T08:15:20.000Z,1080
2017-11-06T08:16:30.429Z,1136
2017-11-06T08:17:40.500Z,1188
2017-11-06T08:18:50.907Z,1208
2017-11-06T08:20:01.013Z,1208
2017-11-06T08:21:11.075Z,1216
2017-11-06T08:22:21.489Z,1228
2017-11-06T08:23:31.918Z,1224
2017-11-06T08:24:42.282Z,1224
2017-11-06T08:25:52.753Z,1248
2017-11-06T08:27:03.166Z,1284
2017-11-06T08:28:13.569Z,1312
2017-11-06T08:29:23.646Z,1320
2017-11-06T08:30:34.038Z,1320
2017-11-06T08:31:44.510Z,1324
2017-11-06T08:32:54.918Z,1332
2017-11-06T08:34:05.309Z,1340
2017-11-06T08:35:15.732Z,1356
2017-11-06T08:36:26.154Z,1380
2017-11-06T08:37:36.266Z,1392
2017-11-06T08:38:46.668Z,1404
2017-11-06T08:39:56.742Z,1428
2017-11-06T08:41:07.160Z,1444
2017-11-06T08:42:16.899Z,1456
2017-11-06T08:43:27.358Z,1480
2017-11-06T08:44:37.785Z,1520
2017-11-06T08:45:47.873Z,1556
2017-11-06T08:46:58.290Z,1548
2017-11-06T08:48:08.692Z,1476
2017-11-06T08:49:18.777Z,1376
2017-11-06T08:50:29.176Z,1292
2017-11-06T08:51:39.567Z,1212
2017-11-06T08:52:50.229Z,1124
2017-11-06T08:54:00.654Z,1052
2017-11-06T08:55:10.745Z,996
2017-11-06T08:56:21.174Z,944
2017-11-06T08:57:31.601Z,916
2017-11-06T08:58:42.008Z,908
2017-11-06T08:59:52.424Z,920
2017-11-06T09:01:02.535Z,924
2017-11-06T09:02:12.951Z,888
2017-11-06T09:03:23.366Z,836
2017-11-06T09:04:33.782Z,800
2017-11-06T09:05:44.191Z,780
2017-11-06T09:06:54.269Z,776
2017-11-06T09:08:04.020Z,796
2017-11-06T09:09:14.415Z,840
2017-11-06T09:10:24.801Z,888
2017-11-06T09:11:35.198Z,892
2017-11-06T09:12:45.607Z,876
2017-11-06T09:13:56.473Z,888
2017-11-06T09:15:06.540Z,924
2017-11-06T09:16:17.971Z,948
2017-11-06T09:17:27.720Z,940
2017-11-06T09:18:38.162Z,916
2017-11-06T09:19:48.578Z,888
2017-11-06T09:20:59.000Z,876
2017-11-06T09:22:09.429Z,876
2017-11-06T09:23:19.882Z,888
2017-11-06T09:24:30.008Z,896
2017-11-06T09:25:40.456Z,912
2017-11-06T09:26:50.519Z,924
2017-11-06T09:28:00.909Z,940
2017-11-06T09:29:11.321Z,964
2017-11-06T09:30:21.123Z,992
2017-11-06T09:31:31.528Z,1024
2017-11-06T09:32:41.949Z,1072
2017-11-06T09:33:52.344Z,1104
2017-11-06T09:35:02.776Z,1120
2017-11-06T09:36:13.187Z,1116
2017-11-06T09:37:23.580Z,1084
2017-11-06T09:38:34.021Z,1032
2017-11-06T09:39:44.440Z,976
2017-11-06T09:40:54.847Z,920
2017-11-06T09:42:05.412Z,896
2017-11-06T09:43:15.810Z,892
2017-11-06T09:44:26.234Z,912
2017-11-06T09:45:36.887Z,936
2017-11-06T09:46:47.268Z,956
2017-11-06T09:47:57.665Z,992
2017-11-06T09:49:07.665Z,1028
2017-11-06T09:50:18.078Z,1048
2017-11-06T09:51:28.525Z,1024
2017-11-06T09:52:39.026Z,956
2017-11-06T09:53:49.496Z,888
2017-11-06T09:54:59.574Z,828
2017-11-06T09:56:09.982Z,780
2017-11-06T09:57:20.417Z,752
2017-11-06T09:58:43.776Z,744
2017-11-06T09:59:54.180Z,752
2017-11-06T10:01:04.589Z,776
2017-11-06T10:02:14.344Z,800
2017-11-06T10:03:24.750Z,824
2017-11-06T10:04:35.167Z,848
2017-11-06T10:05:45.296Z,852
2017-11-06T10:06:55.038Z,852
2017-11-06T10:08:05.140Z,856
2017-11-06T10:09:15.552Z,880
2017-11-06T10:10:25.966Z,916
2017-11-06T10:11:36.419Z,984
2017-11-06T10:12:46.852Z,1088
2017-11-06T10:13:57.257Z,1204
2017-11-06T10:15:07.687Z,1304
2017-11-06T10:16:18.263Z,1396
2017-11-06T10:17:28.676Z,1484
2017-11-06T10:18:39.083Z,1576
2017-11-06T10:19:49.178Z,1624
2017-11-06T10:20:59.582Z,1640
2017-11-06T10:22:09.734Z,1644
2017-11-06T10:23:19.828Z,1612
2017-11-06T10:24:29.915Z,1580
2017-11-06T10:25:40.346Z,1544
2017-11-06T10:26:50.441Z,1492
2017-11-06T10:28:00.921Z,1464
2017-11-06T10:29:11.344Z,1448
2017-11-06T10:30:21.736Z,1440
2017-11-06T10:31:32.168Z,1424
2017-11-06T10:32:42.597Z,1424
2017-11-06T10:33:52.345Z,1448
2017-11-06T10:35:02.766Z,1472
2017-11-06T10:36:13.173Z,1492
2017-11-06T10:37:23.585Z,1524
2017-11-06T10:38:34.016Z,1568
2017-11-06T10:39:44.477Z,1580
2017-11-06T10:40:54.228Z,1548
2017-11-06T10:42:04.639Z,1452
2017-11-06T10:43:14.714Z,1376
2017-11-06T10:44:24.805Z,1364
2017-11-06T10:45:35.217Z,1356
2017-11-06T10:46:45.614Z,1292
2017-11-06T10:47:56.018Z,1220
2017-11-06T10:49:06.423Z,1180
2017-11-06T10:50:16.839Z,1184
2017-11-06T10:51:27.302Z,1212
2017-11-06T10:52:37.749Z,1248
2017-11-06T10:53:48.183Z,1248
2017-11-06T10:54:58.595Z,1228
2017-11-06T10:56:09.011Z,1224
2017-11-06T10:57:19.422Z,1224
2017-11-06T10:58:29.830Z,1228
2017-11-06T10:59:40.255Z,1228
2017-11-06T11:00:50.659Z,1216
2017-11-06T11:02:01.094Z,1180
2017-11-06T11:03:11.509Z,1116
2017-11-06T11:04:21.918Z,1056
2017-11-06T11:05:32.320Z,1012
2017-11-06T11:06:42.735Z,996
2017-11-06T11:07:52.830Z,1016
2017-11-06T11:09:02.935Z,1060
2017-11-06T11:10:13.338Z,1120
2017-11-06T11:11:23.752Z,1208
2017-11-06T11:12:34.163Z,1316
2017-11-06T11:13:44.603Z,1408
2017-11-06T11:14:55.059Z,1432
2017-11-06T11:16:05.503Z,1368
2017-11-06T11:17:15.939Z,1292
2017-11-06T11:18:26.347Z,1240
2017-11-06T11:19:36.434Z,1196
2017-11-06T11:20:47.260Z,1180
2017-11-06T11:21:57.349Z,1160
2017-11-06T11:23:07.442Z,1136
2017-11-06T11:24:17.855Z,1128
2017-11-06T11:25:28.275Z,1112
2017-11-06T11:26:38.719Z,1104
2017-11-06T11:27:48.811Z,1064
2017-11-06T11:28:59.223Z,1020
2017-11-06T11:30:09.299Z,992
2017-11-06T11:31:19.719Z,988
2017-11-06T11:32:30.192Z,984
2017-11-06T11:33:40.585Z,992
2017-11-06T11:34:51.040Z,988
2017-11-06T11:36:01.447Z,964
2017-11-06T11:37:11.217Z,936
2017-11-06T11:38:21.682Z,896
2017-11-06T11:39:31.782Z,872
2017-11-06T11:40:41.879Z,864
2017-11-06T11:41:51.943Z,864
2017-11-06T11:43:02.358Z,880
2017-11-06T11:44:12.827Z,920
2017-11-06T11:45:23.261Z,972
2017-11-06T11:46:33.692Z,992
2017-11-06T11:47:44.209Z,980
2017-11-06T11:48:53.960Z,952
2017-11-06T11:50:04.381Z,936
2017-11-06T11:51:14.473Z,940
2017-11-06T11:52:24.910Z,940
2017-11-06T11:53:35.326Z,932
2017-11-06T11:54:45.741Z,928
2017-11-06T11:55:56.162Z,916
2017-11-06T11:57:06.257Z,904
2017-11-06T11:58:16.668Z,892
2017-11-06T11:59:27.082Z,856
2017-11-06T12:00:37.504Z,816
2017-11-06T12:01:47.924Z,784
2017-11-06T12:02:58.339Z,756
2017-11-06T12:04:08.751Z,744
2017-11-06T12:05:19.186Z,756
2017-11-06T12:06:29.583Z,764
2017-11-06T12:07:40.037Z,800
2017-11-06T12:08:50.451Z,852
2017-11-06T12:10:00.880Z,916
2017-11-06T12:11:11.298Z,1008
2017-11-06T12:12:21.709Z,1044
2017-11-06T12:13:31.839Z,1040
2017-11-06T12:14:42.270Z,1060
2017-11-06T12:15:52.686Z,1132
2017-11-06T12:17:03.109Z,1288
2017-11-06T12:18:13.548Z,1400
2017-11-06T12:19:24.027Z,1496
2017-11-06T12:20:34.436Z,1484
2017-11-06T12:21:44.172Z,1432
2017-11-06T12:22:54.626Z,1440
2017-11-06T12:24:05.040Z,1512
2017-11-06T12:25:15.508Z,1616
2017-11-06T12:26:25.913Z,1708
2017-11-06T12:27:36.374Z,1788
2017-11-06T12:28:46.788Z,1856
2017-11-06T12:29:57.220Z,1888
2017-11-06T12:31:07.688Z,1896
2017-11-06T12:32:17.456Z,1872
2017-11-06T12:33:27.539Z,1832
2017-11-06T12:34:37.943Z,1800
2017-11-06T12:35:48.046Z,1776
2017-11-06T12:36:58.514Z,1784
2017-11-06T12:38:08.918Z,1800
2017-11-06T12:39:19.014Z,1792
2017-11-06T12:40:29.422Z,1776
2017-11-06T12:41:39.856Z,1756
2017-11-06T12:42:50.817Z,1712
2017-11-06T12:44:01.385Z,1648
2017-11-06T12:45:11.816Z,1576
2017-11-06T12:46:22.232Z,1528
2017-11-06T12:47:32.647Z,1508
2017-11-06T12:48:43.127Z,1512
2017-11-06T12:49:53.522Z,1532
2017-11-06T12:51:03.947Z,1552
2017-11-06T12:52:14.368Z,1564
2017-11-06T12:53:24.784Z,1556
2017-11-06T12:54:35.270Z,1532
2017-11-06T12:55:45.680Z,1512
2017-11-06T12:56:56.115Z,1504
2017-11-06T12:58:06.538Z,1500
2017-11-06T12:59:16.958Z,1508
2017-11-06T13:00:27.415Z,1508
2017-11-06T13:01:37.841Z,1524
2017-11-06T13:02:47.964Z,1556
2017-11-06T13:03:58.379Z,1604
2017-11-06T13:05:08.775Z,1664
2017-11-06T13:06:19.175Z,1736
2017-11-06T13:07:29.586Z,1816
2017-11-06T13:08:39.987Z,1884
2017-11-06T13:09:50.392Z,1948
2017-11-06T13:11:00.476Z,1980
2017-11-06T13:12:10.562Z,1992
2017-11-06T13:13:20.670Z,1984
2017-11-06T13:14:31.066Z,1960
2017-11-06T13:15:41.162Z,1920
2017-11-06T13:16:51.572Z,1876
2017-11-06T13:18:01.974Z,1832
2017-11-06T13:19:12.388Z,1792
2017-11-06T13:20:22.485Z,1740
2017-11-06T13:21:32.895Z,1684
2017-11-06T13:22:42.990Z,1616
2017-11-06T13:23:53.074Z,1544
2017-11-06T13:25:03.463Z,1480
2017-11-06T13:26:13.207Z,1432
2017-11-06T13:27:23.290Z,1400
2017-11-06T13:28:33.701Z,1384
2017-11-06T13:29:44.146Z,1376
2017-11-06T13:30:54.567Z,1376
2017-11-06T13:32:04.999Z,1380
2017-11-06T13:33:15.421Z,1396
2017-11-06T13:34:25.917Z,1408
2017-11-06T13:35:36.314Z,1408
2017-11-06T13:36:46.729Z,1416
2017-11-06T13:37:57.151Z,1412
2017-11-06T13:39:07.571Z,1388
2017-11-06T13:40:18.227Z,1352
2017-11-06T13:41:28.317Z,1312
2017-11-06T13:42:38.704Z,1288
2017-11-06T13:43:49.104Z,1280
2017-11-06T13:44:59.521Z,1268
2017-11-06T13:46:09.987Z,1232
2017-11-06T13:47:20.407Z,1196
2017-11-06T13:48:30.836Z,1156
2017-11-06T13:49:41.257Z,1120
2017-11-06T13:50:51.655Z,1096
2017-11-06T13:52:02.118Z,1076
2017-11-06T13:53:12.552Z,1072
2017-11-06T13:54:22.960Z,1088
2017-11-06T13:55:34.585Z,1100
2017-11-06T13:56:44.690Z,1112
2017-11-06T13:57:54.816Z,1116
2017-11-06T13:59:04.544Z,1124
2017-11-06T14:00:14.956Z,1124
2017-11-06T14:01:25.362Z,1136
2017-11-06T14:02:35.791Z,1160
2017-11-06T14:03:46.267Z,1196
2017-11-06T14:04:56.682Z,1236
2017-11-06T14:06:06.467Z,1260
2017-11-06T14:07:16.910Z,1276
2017-11-06T14:08:26.984Z,1276
2017-11-06T14:09:37.391Z,1256
2017-11-06T14:10:47.785Z,1232
2017-11-06T14:11:57.880Z,1220
2017-11-06T14:13:07.961Z,1216
2017-11-06T14:14:18.383Z,1216
2017-11-06T14:15:28.827Z,1216
2017-11-06T14:16:38.599Z,1200
2017-11-06T14:17:49.042Z,1164
2017-11-06T14:18:59.443Z,1112
2017-11-06T14:20:09.864Z,1048
2017-11-06T14:21:20.324Z,984
2017-11-06T14:22:30.758Z,928
2017-11-06T14:23:40.846Z,880
2017-11-06T14:24:51.261Z,848
2017-11-06T14:26:01.369Z,824
2017-11-06T14:27:11.802Z,800
2017-11-06T14:28:22.218Z,784
2017-11-06T14:29:32.650Z,768
2017-11-06T14:30:42.746Z,752
2017-11-06T14:31:52.816Z,720
2017-11-06T14:33:02.944Z,672
2017-11-06T14:34:13.375Z,616
2017-11-06T14:35:23.800Z,564
2017-11-06T14:36:34.214Z,524
2017-11-06T14:37:44.278Z,492
2017-11-06T14:38:54.986Z,468
2017-11-06T14:40:05.074Z,444
2017-11-06T14:41:15.513Z,420
2017-11-06T14:42:25.932Z,392
2017-11-06T14:43:36.011Z,364
2017-11-06T14:44:47.676Z,336
2017-11-06T14:45:58.083Z,316
2017-11-06T14:47:08.185Z,288
2017-11-06T14:48:17.959Z,276
2017-11-06T14:49:28.393Z,260
2017-11-06T14:50:38.209Z,252
2017-11-06T14:51:48.268Z,244
2017-11-06T14:52:58.689Z,248
2017-11-06T14:54:08.776Z,252
2017-11-06T14:55:18.857Z,256
2017-11-06T14:56:28.998Z,260
2017-11-06T14:57:39.407Z,256
2017-11-06T14:58:49.492Z,248
2017-11-06T14:59:59.902Z,232
2017-11-06T15:01:09.661Z,220
2017-11-06T15:02:19.784Z,204
2017-11-06T15:03:29.863Z,192
2017-11-06T15:04:39.946Z,184
2017-11-06T15:05:49.690Z,172
2017-11-06T15:06:59.450Z,156
2017-11-06T15:08:09.928Z,144
2017-11-06T15:09:20.337Z,128
2017-11-06T15:10:30.411Z,116
2017-11-06T15:11:40.842Z,100
2017-11-06T15:12:50.913Z,96
2017-11-06T15:14:01.378Z,92
2017-11-06T15:15:11.466Z,88
2017-11-06T15:16:21.889Z,84
2017-11-06T15:17:32.311Z,80
2017-11-06T15:18:42.732Z,72
2017-11-06T15:19:53.294Z,68
2017-11-06T15:21:03.726Z,60
2017-11-06T15:22:14.146Z,56
2017-11-06T15:23:24.237Z,48
2017-11-06T15:24:34.624Z,44
2017-11-06T15:25:44.769Z,40
2017-11-06T15:26:54.848Z,36
2017-11-06T15:28:06.206Z,32
2017-11-06T15:29:16.362Z,28
2017-11-06T15:30:26.744Z,28
2017-11-06T15:31:37.169Z,28
2017-11-06T15:32:47.414Z,24
2017-11-06T15:33:57.837Z,20
2017-11-06T15:35:08.117Z,16
2017-11-06T15:36:17.992Z,16
2017-11-06T15:37:28.459Z,12
2017-11-06T15:38:38.877Z,12
2017-11-06T15:39:49.346Z,12
2017-11-06T15:40:59.743Z,8
2017-11-06T15:42:10.158Z,8
2017-11-06T15:43:20.748Z,4
2017-11-06T15:44:31.320Z,4
2017-11-06T15:45:41.735Z,4
2017-11-06T15:46:52.042Z,4
2017-11-06T15:48:02.572Z,4
2017-11-06T15:49:13.347Z,0
2017-11-06T15:50:23.801Z,4
2017-11-06T15:51:33.869Z,4
2017-11-06T15:52:44.450Z,0
2017-11-06T15:53:54.859Z,0
2017-11-06T15:55:05.625Z,0
2017-11-06T15:56:16.117Z,0
2017-11-06T15:57:26.564Z,0
2017-11-06T15:58:36.968Z,0
2017-11-06T15:59:47.424Z,0
2017-11-06T16:00:57.596Z,0
2017-11-06T16:02:07.688Z,0
2017-11-06T16:03:17.791Z,0
2017-11-06T16:04:28.258Z,0
2017-11-06T16:05:38.371Z,0
2017-11-06T16:06:48.563Z,0
2017-11-06T16:07:58.986Z,0
2017-11-06T16:09:09.423Z,0
2017-11-06T16:10:19.848Z,0
2017-11-06T16:11:30.277Z,0
2017-11-06T16:12:40.729Z,0
2017-11-06T16:13:50.507Z,0
2017-11-06T16:15:00.271Z,0
2017-11-06T16:16:10.711Z,0
2017-11-06T16:17:21.131Z,0
2017-11-06T16:18:31.316Z,0
2017-11-06T16:19:41.751Z,0
2017-11-06T16:20:52.165Z,0
2017-11-06T16:22:02.256Z,0
2017-11-06T16:23:12.322Z,0
2017-11-06T16:24:22.468Z,0
2017-11-06T16:25:32.883Z,0
2017-11-06T16:26:43.320Z,0
2017-11-06T16:27:53.433Z,0
2017-11-06T16:29:03.841Z,0
2017-11-06T16:30:13.966Z,0
2017-11-06T16:31:24.388Z,0
2017-11-06T16:32:34.460Z,0
2017-11-06T16:33:44.908Z,0
2017-11-06T16:34:55.355Z,0
2017-11-06T16:36:05.859Z,0
2017-11-06T16:37:15.957Z,0
2017-11-06T16:38:26.376Z,0
2017-11-06T16:39:36.791Z,0
2017-11-06T16:40:46.875Z,0
2017-11-06T16:41:57.340Z,0
2017-11-06T16:43:07.792Z,0
2017-11-06T16:44:17.885Z,0
2017-11-06T16:45:28.341Z,0
2017-11-06T16:46:38.791Z,0
2017-11-06T16:47:49.256Z,0
2017-11-06T16:48:59.684Z,0
2017-11-06T16:50:10.092Z,0
2017-11-06T16:51:20.520Z,0
2017-11-06T16:52:30.591Z,0
2017-11-06T16:53:40.736Z,0
2017-11-06T16:54:50.856Z,0
2017-11-06T16:56:00.940Z,0
2017-11-06T16:57:11.065Z,0
2017-11-06T16:58:21.513Z,0